createdAt,value
2019-05-18T00:00:45.800Z,11.79
2019-05-18T00:01:45.819Z,11.80
2019-05-18T00:02:45.841Z,11.77
2019-05-18T00:03:45.767Z,11.76
2019-05-18T00:04:45.758Z,11.73
2019-05-18T00:05:45.745Z,11.69
2019-05-18T00:06:45.736Z,11.59
2019-05-18T00:07:45.730Z,11.67
2019-05-18T00:08:45.750Z,11.71
2019-05-18T00:09:45.752Z,11.80
2019-05-18T00:10:45.691Z,11.76
2019-05-18T00:11:45.689Z,11.73
2019-05-18T00:12:45.728Z,11.82
2019-05-18T00:13:45.665Z,11.74
2019-05-18T00:14:45.648Z,11.84
2019-05-18T00:15:45.644Z,11.82
2019-05-18T00:16:45.625Z,11.76
2019-05-18T00:17:45.606Z,11.76
2019-05-18T00:18:45.670Z,11.79
2019-05-18T00:19:45.593Z,11.67
2019-05-18T00:20:45.577Z,11.66
2019-05-18T00:21:45.565Z,11.64
2019-05-18T00:22:45.558Z,11.52
2019-05-18T00:23:45.591Z,11.41
2019-05-18T00:24:45.539Z,11.28
2019-05-18T00:25:45.519Z,11.27
2019-05-18T00:26:45.555Z,11.13
2019-05-18T00:27:45.537Z,11.04
2019-05-18T00:28:45.491Z,11.08
2019-05-18T00:29:45.471Z,10.95
2019-05-18T00:30:45.507Z,11.09
2019-05-18T00:31:45.457Z,11.03
2019-05-18T00:32:45.438Z,10.97
2019-05-18T00:33:45.466Z,10.98
2019-05-18T00:34:45.429Z,11.08
2019-05-18T00:35:45.407Z,11.11
2019-05-18T00:36:45.406Z,11.08
2019-05-18T00:37:45.379Z,10.97
2019-05-18T00:38:45.431Z,10.98
2019-05-18T00:39:45.369Z,10.95
2019-05-18T00:40:45.347Z,10.95
2019-05-18T00:41:45.621Z,11.04
2019-05-18T00:42:45.322Z,11.04
2019-05-18T00:43:45.320Z,10.95
2019-05-18T00:44:45.347Z,10.98
2019-05-18T00:45:45.333Z,10.95
2019-05-18T00:46:45.284Z,10.95
2019-05-18T00:47:45.275Z,10.97
2019-05-18T00:48:45.257Z,10.91
2019-05-18T00:49:45.246Z,10.98
2019-05-18T00:50:45.271Z,10.97
2019-05-18T00:51:45.235Z,11.12
2019-05-18T00:52:45.266Z,11.12
2019-05-18T00:53:45.198Z,11.09
2019-05-18T00:54:45.188Z,11.04
2019-05-18T00:55:45.179Z,11.04
2019-05-18T00:56:45.167Z,11.03
2019-05-18T00:57:45.207Z,11.13
2019-05-18T00:58:45.160Z,11.20
2019-05-18T00:59:45.131Z,11.11
2019-05-18T01:00:45.122Z,11.15
2019-05-18T01:01:45.111Z,11.23
2019-05-18T01:02:45.096Z,11.03
2019-05-18T01:03:45.138Z,11.00
2019-05-18T01:04:45.097Z,10.93
2019-05-18T01:05:45.066Z,10.97
2019-05-18T01:06:45.052Z,10.94
2019-05-18T01:07:45.039Z,10.94
2019-05-18T01:08:45.038Z,10.83
2019-05-18T01:09:45.062Z,10.93
2019-05-18T01:10:45.013Z,10.98
2019-05-18T01:11:44.999Z,10.87
2019-05-18T01:12:45.032Z,11.01
2019-05-18T01:13:44.978Z,10.98
2019-05-18T01:14:44.980Z,10.97
2019-05-18T01:15:44.954Z,10.98
2019-05-18T01:16:44.950Z,10.97
2019-05-18T01:17:56.990Z,10.95
2019-05-18T01:18:45.962Z,10.93
2019-05-18T01:19:44.925Z,10.94
2019-05-18T01:20:44.895Z,10.93
2019-05-18T01:21:44.879Z,10.98
2019-05-18T01:22:44.875Z,10.97
2019-05-18T01:23:44.866Z,10.98
2019-05-18T01:24:44.894Z,11.08
2019-05-18T01:25:44.891Z,11.13
2019-05-18T01:26:44.863Z,11.16
2019-05-18T01:27:44.812Z,11.15
2019-05-18T01:28:44.817Z,11.20
2019-05-18T01:29:44.794Z,11.13
2019-05-18T01:30:44.780Z,11.09
2019-05-18T01:31:44.819Z,11.20
2019-05-18T01:32:44.806Z,11.05
2019-05-18T01:33:44.746Z,11.13
2019-05-18T01:34:44.742Z,11.11
2019-05-18T01:35:44.727Z,11.09
2019-05-18T01:36:44.710Z,10.97
2019-05-18T01:37:44.739Z,10.95
2019-05-18T01:38:44.730Z,10.98
2019-05-18T01:39:44.690Z,10.97
2019-05-18T01:40:44.669Z,10.95
2019-05-18T01:41:44.678Z,10.95
2019-05-18T01:42:44.663Z,11.09
2019-05-18T01:43:44.642Z,11.09
2019-05-18T01:44:44.665Z,11.09
2019-05-18T01:45:44.628Z,11.16
2019-05-18T01:46:44.623Z,11.20
2019-05-18T01:47:44.586Z,11.16
2019-05-18T01:48:44.618Z,11.23
2019-05-18T01:49:44.594Z,11.34
2019-05-18T01:50:44.553Z,11.30
2019-05-18T01:51:44.541Z,11.34
2019-05-18T01:52:44.531Z,11.31
2019-05-18T01:53:44.521Z,11.28
2019-05-18T01:54:44.553Z,11.37
2019-05-18T01:55:44.502Z,11.38
2019-05-18T01:56:44.493Z,11.43
2019-05-18T01:57:44.472Z,11.40
2019-05-18T01:58:44.472Z,11.28
2019-05-18T01:59:44.447Z,11.31
2019-05-18T02:00:44.484Z,11.41
2019-05-18T02:01:44.426Z,11.41
2019-05-18T02:02:44.417Z,11.40
2019-05-18T02:03:44.405Z,11.40
2019-05-18T02:04:44.466Z,11.28
2019-05-18T02:05:44.385Z,11.28
2019-05-18T02:06:44.387Z,11.33
2019-05-18T02:07:44.367Z,11.30
2019-05-18T02:08:44.394Z,11.31
2019-05-18T02:09:44.377Z,11.33
2019-05-18T02:10:44.374Z,11.28
2019-05-18T02:11:44.320Z,11.28
2019-05-18T02:12:44.305Z,11.30
2019-05-18T02:13:44.288Z,11.33
2019-05-18T02:14:44.283Z,11.30
2019-05-18T02:15:44.267Z,11.33
2019-05-18T02:16:44.299Z,11.37
2019-05-18T02:17:44.256Z,11.31
2019-05-18T02:18:44.230Z,11.46
2019-05-18T02:19:44.221Z,11.38
2019-05-18T02:20:44.251Z,11.45
2019-05-18T02:21:44.210Z,11.46
2019-05-18T02:22:44.229Z,11.34
2019-05-18T02:23:44.263Z,11.20
2019-05-18T02:24:44.165Z,11.22
2019-05-18T02:25:44.160Z,11.09
2019-05-18T02:26:44.148Z,11.08
2019-05-18T02:27:44.130Z,11.01
2019-05-18T02:28:44.165Z,10.95
2019-05-18T02:29:44.147Z,10.94
2019-05-18T02:30:44.101Z,10.94
2019-05-18T02:31:44.093Z,10.95
2019-05-18T02:32:44.073Z,10.95
2019-05-18T02:33:44.110Z,10.95
2019-05-18T02:34:44.070Z,10.94
2019-05-18T02:35:44.090Z,10.95
2019-05-18T02:36:44.033Z,10.95
2019-05-18T02:37:44.017Z,10.97
2019-05-18T02:38:44.005Z,11.01
2019-05-18T02:39:44.005Z,11.11
2019-05-18T02:40:44.051Z,11.03
2019-05-18T02:41:44.002Z,11.12
2019-05-18T02:42:43.969Z,11.13
2019-05-18T02:43:43.951Z,11.05
2019-05-18T02:44:43.942Z,11.19
2019-05-18T02:45:43.943Z,11.12
2019-05-18T02:46:43.953Z,11.16
2019-05-18T02:47:43.905Z,11.15
2019-05-18T02:48:49.477Z,11.16
2019-05-18T02:49:44.930Z,11.27
2019-05-18T02:50:43.868Z,11.31
2019-05-18T02:51:43.866Z,11.27
2019-05-18T02:52:43.853Z,11.27
2019-05-18T02:53:43.837Z,11.31
2019-05-18T02:54:43.874Z,11.28
2019-05-18T02:55:43.856Z,11.43
2019-05-18T02:56:43.806Z,11.46
2019-05-18T02:57:43.832Z,11.43
2019-05-18T02:58:43.811Z,11.51
2019-05-18T02:59:43.819Z,11.41
2019-05-18T03:00:43.793Z,11.51
2019-05-18T03:01:43.745Z,11.49
2019-05-18T03:02:43.735Z,11.58
2019-05-18T03:03:43.758Z,11.58
2019-05-18T03:04:43.753Z,11.59
2019-05-18T03:05:43.701Z,11.61
2019-05-18T03:06:43.722Z,11.73
2019-05-18T03:07:43.676Z,11.61
2019-05-18T03:08:43.671Z,11.70
2019-05-18T03:09:43.668Z,11.76
2019-05-18T03:10:43.684Z,11.77
2019-05-18T03:11:43.635Z,11.79
2019-05-18T03:12:43.620Z,11.71
2019-05-18T03:13:43.619Z,11.77
2019-05-18T03:14:43.601Z,11.85
2019-05-18T03:15:43.633Z,11.85
2019-05-18T03:16:43.582Z,11.95
2019-05-18T03:17:43.574Z,11.93
2019-05-18T03:18:43.552Z,11.89
2019-05-18T03:19:43.580Z,12.00
2019-05-18T03:20:43.532Z,11.88
2019-05-18T03:21:43.561Z,11.84
2019-05-18T03:22:43.507Z,11.89
2019-05-18T03:23:43.496Z,11.93
2019-05-18T03:24:43.484Z,11.87
2019-05-18T03:25:43.481Z,11.79
2019-05-18T03:26:43.506Z,11.87
2019-05-18T03:27:43.451Z,11.89
2019-05-18T03:28:43.444Z,11.93
2019-05-18T03:29:43.432Z,11.91
2019-05-18T03:30:43.423Z,11.91
2019-05-18T03:31:43.547Z,11.88
2019-05-18T03:32:43.437Z,11.80
2019-05-18T03:33:43.388Z,11.71
2019-05-18T03:34:43.374Z,11.85
2019-05-18T03:35:43.378Z,11.71
2019-05-18T03:36:43.362Z,11.80
2019-05-18T03:37:43.380Z,11.74
2019-05-18T03:38:43.330Z,11.87
2019-05-18T03:39:43.317Z,11.84
2019-05-18T03:40:43.308Z,11.99
2019-05-18T03:41:43.302Z,12.05
2019-05-18T03:42:43.280Z,12.00
2019-05-18T03:43:43.311Z,11.95
2019-05-18T03:44:43.257Z,11.99
2019-05-18T03:45:43.247Z,12.07
2019-05-18T03:46:43.236Z,12.04
2019-05-18T03:47:43.232Z,11.99
2019-05-18T03:48:43.212Z,12.00
2019-05-18T03:49:43.254Z,12.00
2019-05-18T03:50:43.191Z,12.04
2019-05-18T03:51:43.183Z,12.04
2019-05-18T03:52:43.171Z,12.14
2019-05-18T03:53:43.203Z,12.11
2019-05-18T03:54:43.153Z,12.26
2019-05-18T03:55:43.151Z,12.11
2019-05-18T03:56:43.170Z,12.21
2019-05-18T03:57:43.115Z,12.13
2019-05-18T03:58:43.146Z,11.99
2019-05-18T03:59:43.090Z,12.13
2019-05-18T04:00:43.091Z,12.15
2019-05-18T04:01:43.069Z,12.13
2019-05-18T04:02:43.099Z,12.13
2019-05-18T04:03:43.091Z,12.08
2019-05-18T04:04:43.090Z,12.23
2019-05-18T04:05:43.026Z,12.22
2019-05-18T04:06:43.017Z,12.17
2019-05-18T04:07:43.013Z,12.17
2019-05-18T04:08:42.988Z,12.21
2019-05-18T04:09:43.016Z,12.21
2019-05-18T04:10:43.013Z,12.23
2019-05-18T04:11:42.961Z,12.25
2019-05-18T04:12:42.980Z,12.18
2019-05-18T04:13:42.988Z,12.22
2019-05-18T04:14:42.970Z,12.22
2019-05-18T04:15:42.960Z,12.23
2019-05-18T04:16:42.922Z,12.25
2019-05-18T04:17:42.910Z,12.22
2019-05-18T04:18:42.882Z,12.29
2019-05-18T04:19:46.974Z,12.43
2019-05-18T04:20:42.866Z,12.40
2019-05-18T04:21:42.890Z,12.33
2019-05-18T04:22:42.828Z,12.44
2019-05-18T04:23:42.865Z,12.41
2019-05-18T04:24:42.815Z,12.46
2019-05-18T04:25:43.938Z,12.46
2019-05-18T04:26:42.785Z,12.47
2019-05-18T04:27:42.813Z,12.46
2019-05-18T04:28:42.813Z,12.50
2019-05-18T04:29:42.750Z,12.51
2019-05-18T04:30:42.757Z,12.59
2019-05-18T04:31:42.726Z,12.69
2019-05-18T04:32:42.716Z,12.54
2019-05-18T04:33:42.705Z,12.63
2019-05-18T04:34:42.743Z,12.61
2019-05-18T04:35:42.687Z,12.53
2019-05-18T04:36:42.671Z,12.53
2019-05-18T04:37:42.718Z,12.51
2019-05-18T04:38:42.655Z,12.44
2019-05-18T04:39:42.635Z,12.44
2019-05-18T04:40:42.628Z,12.44
2019-05-18T04:41:42.617Z,12.47
2019-05-18T04:42:42.673Z,12.43
2019-05-18T04:43:42.653Z,12.40
2019-05-18T04:44:42.581Z,12.43
2019-05-18T04:45:42.614Z,12.54
2019-05-18T04:46:42.578Z,12.48
2019-05-18T04:47:42.565Z,12.48
2019-05-18T04:48:42.576Z,12.50
2019-05-18T04:49:42.527Z,12.55
2019-05-18T04:50:42.513Z,12.47
2019-05-18T04:51:42.506Z,12.44
2019-05-18T04:52:42.485Z,12.44
2019-05-18T04:53:42.484Z,12.53
2019-05-18T04:54:42.508Z,12.61
2019-05-18T04:55:42.458Z,12.69
2019-05-18T04:56:43.197Z,12.79
2019-05-18T04:57:42.484Z,12.79
2019-05-18T04:58:42.465Z,12.91
2019-05-18T04:59:42.412Z,12.99
2019-05-18T05:00:42.397Z,13.08
2019-05-18T05:01:42.469Z,13.20
2019-05-18T05:02:42.399Z,13.21
2019-05-18T05:03:42.383Z,13.19
2019-05-18T05:04:42.401Z,13.23
2019-05-18T05:05:42.345Z,13.21
2019-05-18T05:06:42.403Z,13.30
2019-05-18T05:07:42.352Z,13.32
2019-05-18T05:08:42.323Z,13.32
2019-05-18T05:09:42.293Z,13.38
2019-05-18T05:10:42.293Z,13.35
2019-05-18T05:11:42.302Z,13.38
2019-05-18T05:12:42.310Z,13.29
2019-05-18T05:13:42.305Z,13.26
2019-05-18T05:14:42.294Z,13.27
2019-05-18T05:15:42.243Z,13.30
2019-05-18T05:16:42.231Z,13.27
2019-05-18T05:17:42.258Z,13.24
2019-05-18T05:18:42.244Z,13.21
2019-05-18T05:19:42.213Z,13.35
2019-05-18T05:20:42.233Z,13.29
2019-05-18T05:21:42.158Z,13.26
2019-05-18T05:22:42.158Z,13.27
2019-05-18T05:23:42.211Z,13.29
2019-05-18T05:24:42.179Z,13.26
2019-05-18T05:25:42.118Z,13.40
2019-05-18T05:26:42.111Z,13.40
2019-05-18T05:27:42.135Z,13.39
2019-05-18T05:28:42.085Z,13.42
2019-05-18T05:29:42.093Z,13.43
2019-05-18T05:30:42.094Z,13.40
2019-05-18T05:31:42.105Z,13.46
2019-05-18T05:32:42.041Z,13.42
2019-05-18T05:33:42.024Z,13.45
2019-05-18T05:34:42.075Z,13.47
2019-05-18T05:35:42.006Z,13.46
2019-05-18T05:36:42.015Z,13.51
2019-05-18T05:37:41.982Z,13.51
2019-05-18T05:38:41.971Z,13.51
2019-05-18T05:39:41.991Z,13.55
2019-05-18T05:40:41.987Z,13.51
2019-05-18T05:41:41.958Z,13.58
2019-05-18T05:42:41.933Z,13.54
2019-05-18T05:43:41.915Z,13.58
2019-05-18T05:44:41.909Z,13.60
2019-05-18T05:45:41.937Z,13.63
2019-05-18T05:46:41.890Z,13.71
2019-05-18T05:47:41.873Z,13.67
2019-05-18T05:48:41.866Z,13.75
2019-05-18T05:49:41.896Z,13.86
2019-05-18T05:50:41.854Z,13.90
2019-05-18T05:51:41.894Z,13.91
2019-05-18T05:52:41.958Z,13.97
2019-05-18T05:53:41.807Z,13.90
2019-05-18T05:54:41.824Z,13.98
2019-05-18T05:55:41.803Z,14.12
2019-05-18T05:56:41.830Z,14.12
2019-05-18T05:57:41.761Z,14.04
2019-05-18T05:58:41.771Z,14.23
2019-05-18T05:59:41.766Z,14.18
2019-05-18T06:00:41.730Z,14.27
2019-05-18T06:01:41.711Z,14.34
2019-05-18T06:02:41.792Z,14.30
2019-05-18T06:03:41.733Z,14.38
2019-05-18T06:04:41.699Z,14.49
2019-05-18T06:05:41.680Z,14.66
2019-05-18T06:06:41.654Z,14.63
2019-05-18T06:07:41.706Z,14.73
2019-05-18T06:08:41.654Z,14.85
2019-05-18T06:09:41.620Z,14.63
2019-05-18T06:10:41.666Z,14.55
2019-05-18T06:11:41.599Z,14.46
2019-05-18T06:12:41.619Z,14.55
2019-05-18T06:13:41.580Z,14.58
2019-05-18T06:14:41.580Z,14.52
2019-05-18T06:15:41.604Z,14.53
2019-05-18T06:16:41.561Z,14.63
2019-05-18T06:17:41.540Z,14.49
2019-05-18T06:18:41.536Z,14.46
2019-05-18T06:19:41.515Z,14.37
2019-05-18T06:20:50.900Z,14.31
2019-05-18T06:21:42.555Z,14.40
2019-05-18T06:22:41.493Z,14.23
2019-05-18T06:23:41.509Z,14.26
2019-05-18T06:24:41.493Z,14.26
2019-05-18T06:25:41.443Z,14.22
2019-05-18T06:26:41.498Z,14.28
2019-05-18T06:27:41.475Z,14.27
2019-05-18T06:28:41.434Z,14.30
2019-05-18T06:29:41.468Z,14.36
2019-05-18T06:30:41.385Z,14.40
2019-05-18T06:31:41.403Z,14.51
2019-05-18T06:32:41.371Z,14.53
2019-05-18T06:33:41.355Z,14.59
2019-05-18T06:34:41.416Z,14.66
2019-05-18T06:35:41.326Z,14.82
2019-05-18T06:36:41.317Z,15.03
2019-05-18T06:37:41.337Z,15.15
2019-05-18T06:38:41.352Z,15.27
2019-05-18T06:39:41.295Z,15.33
2019-05-18T06:40:41.319Z,15.45
2019-05-18T06:41:41.310Z,15.65
2019-05-18T06:42:41.257Z,15.78
2019-05-18T06:43:41.242Z,15.90
2019-05-18T06:44:41.230Z,15.78
2019-05-18T06:45:41.227Z,15.65
2019-05-18T06:46:41.216Z,15.66
2019-05-18T06:47:41.242Z,15.78
2019-05-18T06:48:41.186Z,15.88
2019-05-18T06:49:41.175Z,15.98
2019-05-18T06:50:41.169Z,16.08
2019-05-18T06:51:41.149Z,16.10
2019-05-18T06:52:41.177Z,16.29
2019-05-18T06:53:41.129Z,16.43
2019-05-18T06:54:41.120Z,16.39
2019-05-18T06:55:41.124Z,16.24
2019-05-18T06:56:41.142Z,16.08
2019-05-18T06:57:41.126Z,16.13
2019-05-18T06:58:41.068Z,16.13
2019-05-18T06:59:41.076Z,16.06
2019-05-18T07:00:41.104Z,16.32
2019-05-18T07:01:41.058Z,16.34
2019-05-18T07:02:41.104Z,16.22
2019-05-18T07:03:41.022Z,16.36
2019-05-18T07:04:41.009Z,16.47
2019-05-18T07:05:41.066Z,16.54
2019-05-18T07:06:41.026Z,16.62
2019-05-18T07:07:41.025Z,16.65
2019-05-18T07:08:40.955Z,16.74
2019-05-18T07:09:40.961Z,16.87
2019-05-18T07:10:40.950Z,17.04
2019-05-18T07:11:40.931Z,17.12
2019-05-18T07:12:40.934Z,17.14
2019-05-18T07:13:40.971Z,17.24
2019-05-18T07:14:40.923Z,17.35
2019-05-18T07:15:40.931Z,17.30
2019-05-18T07:16:40.890Z,17.28
2019-05-18T07:17:40.871Z,17.35
2019-05-18T07:18:40.901Z,17.38
2019-05-18T07:19:40.841Z,17.45
2019-05-18T07:20:40.830Z,17.41
2019-05-18T07:21:40.858Z,17.45
2019-05-18T07:22:40.874Z,17.45
2019-05-18T07:23:43.750Z,17.49
2019-05-18T07:24:40.797Z,17.52
2019-05-18T07:25:40.794Z,17.56
2019-05-18T07:26:40.870Z,17.75
2019-05-18T07:27:40.745Z,17.72
2019-05-18T07:28:40.791Z,17.71
2019-05-18T07:29:40.741Z,17.75
2019-05-18T07:30:40.766Z,17.81
2019-05-18T07:31:40.717Z,17.75
2019-05-18T07:32:40.739Z,17.69
2019-05-18T07:33:40.700Z,17.75
2019-05-18T07:34:40.734Z,17.63
2019-05-18T07:35:40.664Z,17.59
2019-05-18T07:36:40.663Z,17.76
2019-05-18T07:37:40.683Z,17.88
2019-05-18T07:38:40.674Z,17.76
2019-05-18T07:39:40.691Z,17.76
2019-05-18T07:40:40.632Z,17.76
2019-05-18T07:41:46.719Z,17.94
2019-05-18T07:42:41.590Z,18.05
2019-05-18T07:43:40.578Z,18.06
2019-05-18T07:44:40.563Z,18.20
2019-05-18T07:45:40.601Z,18.13
2019-05-18T07:46:40.540Z,18.20
2019-05-18T07:47:40.582Z,18.15
2019-05-18T07:48:40.529Z,18.20
2019-05-18T07:49:40.582Z,18.08
2019-05-18T07:50:40.495Z,18.20
2019-05-18T07:51:40.536Z,18.20
2019-05-18T07:52:40.480Z,18.13
2019-05-18T07:53:40.487Z,18.13
2019-05-18T07:54:40.452Z,18.31
2019-05-18T07:55:40.521Z,18.26
2019-05-18T07:56:40.443Z,18.36
2019-05-18T07:57:40.440Z,18.41
2019-05-18T07:58:40.437Z,18.54
2019-05-18T07:59:40.407Z,18.57
2019-05-18T08:00:40.390Z,18.68
2019-05-18T08:01:40.440Z,18.86
2019-05-18T08:02:40.374Z,18.97
2019-05-18T08:03:40.369Z,18.96
2019-05-18T08:04:40.416Z,19.00
2019-05-18T08:05:40.331Z,18.96
2019-05-18T08:06:40.342Z,19.00
2019-05-18T08:07:40.309Z,19.30
2019-05-18T08:08:40.302Z,19.45
2019-05-18T08:09:40.346Z,19.50
2019-05-18T08:10:43.495Z,19.53
2019-05-18T08:11:40.283Z,19.57
2019-05-18T08:12:40.299Z,19.45
2019-05-18T08:13:40.292Z,19.22
2019-05-18T08:14:40.231Z,19.20
2019-05-18T08:15:40.276Z,19.42
2019-05-18T08:16:40.228Z,19.42
2019-05-18T08:17:40.223Z,19.44
2019-05-18T08:18:40.194Z,19.50
2019-05-18T08:19:40.226Z,19.57
2019-05-18T08:20:40.174Z,19.53
2019-05-18T08:21:52.116Z,19.64
2019-05-18T08:22:41.198Z,19.77
2019-05-18T08:23:40.143Z,19.64
2019-05-18T08:24:40.187Z,19.52
2019-05-18T08:25:40.135Z,19.39
2019-05-18T08:26:40.145Z,19.39
2019-05-18T08:27:40.091Z,19.47
2019-05-18T08:28:40.121Z,19.56
2019-05-18T08:29:40.061Z,19.59
2019-05-18T08:30:40.053Z,19.60
2019-05-18T08:31:40.090Z,19.75
2019-05-18T08:32:40.028Z,19.78
2019-05-18T08:33:40.024Z,19.77
2019-05-18T08:34:40.020Z,19.89
2019-05-18T08:35:40.031Z,19.67
2019-05-18T08:36:40.005Z,19.77
2019-05-18T08:37:40.024Z,19.87
2019-05-18T08:38:39.960Z,19.79
2019-05-18T08:39:39.967Z,19.96
2019-05-18T08:40:39.985Z,20.04
2019-05-18T08:41:39.969Z,20.02
2019-05-18T08:42:39.916Z,20.02
2019-05-18T08:43:39.921Z,20.04
2019-05-18T08:44:39.897Z,19.86
2019-05-18T08:45:39.897Z,19.72
2019-05-18T08:46:39.884Z,19.74
2019-05-18T08:47:39.922Z,19.87
2019-05-18T08:48:39.861Z,19.97
2019-05-18T08:49:39.844Z,20.12
2019-05-18T08:50:39.835Z,19.86
2019-05-18T08:51:39.826Z,19.82
2019-05-18T08:52:39.852Z,19.63
2019-05-18T08:53:39.793Z,19.78
2019-05-18T08:54:39.803Z,19.87
2019-05-18T08:55:39.830Z,20.00
2019-05-18T08:56:39.799Z,20.17
2019-05-18T08:57:39.825Z,20.32
2019-05-18T08:58:39.743Z,20.26
2019-05-18T08:59:40.063Z,20.25
2019-05-18T09:00:39.712Z,20.25
2019-05-18T09:01:39.699Z,20.22
2019-05-18T09:02:39.732Z,20.07
2019-05-18T09:03:39.694Z,20.02
2019-05-18T09:04:39.667Z,20.11
2019-05-18T09:05:39.678Z,20.19
2019-05-18T09:06:39.676Z,20.27
2019-05-18T09:07:39.705Z,20.32
2019-05-18T09:08:39.666Z,20.22
2019-05-18T09:09:39.647Z,20.30
2019-05-18T09:10:39.991Z,20.63
2019-05-18T09:11:39.592Z,20.90
2019-05-18T09:12:39.623Z,21.14
2019-05-18T09:13:39.579Z,21.30
2019-05-18T09:14:39.579Z,21.14
2019-05-18T09:15:39.545Z,20.93
2019-05-18T09:16:39.589Z,21.03
2019-05-18T09:17:39.530Z,21.14
2019-05-18T09:18:39.510Z,21.32
2019-05-18T09:19:39.502Z,21.59
2019-05-18T09:20:39.498Z,21.65
2019-05-18T09:21:39.523Z,21.60
2019-05-18T09:22:39.471Z,21.35
2019-05-18T09:23:39.489Z,21.45
2019-05-18T09:24:39.463Z,21.47
2019-05-18T09:25:39.483Z,21.55
2019-05-18T09:26:39.491Z,21.47
2019-05-18T09:27:39.472Z,21.78
2019-05-18T09:28:39.462Z,21.93
2019-05-18T09:29:39.394Z,21.96
2019-05-18T09:30:41.253Z,21.93
2019-05-18T09:31:39.434Z,21.91
2019-05-18T09:32:39.364Z,21.91
2019-05-18T09:33:39.348Z,21.94
2019-05-18T09:34:39.332Z,22.00
2019-05-18T09:35:39.325Z,22.09
2019-05-18T09:36:39.432Z,22.04
2019-05-18T09:37:39.336Z,22.04
2019-05-18T09:38:39.296Z,22.13
2019-05-18T09:39:39.277Z,22.33
2019-05-18T09:40:39.328Z,22.40
2019-05-18T09:41:39.340Z,22.61
2019-05-18T09:42:39.285Z,22.67
2019-05-18T09:43:39.246Z,22.91
2019-05-18T09:44:39.217Z,23.14
2019-05-18T09:45:39.215Z,23.22
2019-05-18T09:46:39.257Z,22.83
2019-05-18T09:47:39.199Z,22.68
2019-05-18T09:48:39.186Z,22.64
2019-05-18T09:49:39.164Z,22.83
2019-05-18T09:50:39.168Z,22.99
2019-05-18T09:51:39.188Z,23.17
2019-05-18T09:52:45.445Z,23.31
2019-05-18T09:53:50.657Z,23.49
2019-05-18T09:54:40.126Z,23.45
2019-05-18T09:55:39.106Z,23.48
2019-05-18T09:56:39.134Z,23.49
2019-05-18T09:57:39.097Z,23.48
2019-05-18T09:58:39.069Z,23.51
2019-05-18T09:59:39.074Z,23.41
2019-05-18T10:00:39.312Z,23.37
2019-05-18T10:01:39.058Z,23.21
2019-05-18T10:02:39.083Z,23.15
2019-05-18T10:03:39.008Z,22.88
2019-05-18T10:04:39.008Z,22.44
2019-05-18T10:05:38.994Z,22.25
2019-05-18T10:06:38.993Z,22.11
2019-05-18T10:07:38.974Z,22.07
2019-05-18T10:08:39.001Z,22.15
2019-05-18T10:09:39.812Z,22.30
2019-05-18T10:10:38.935Z,22.22
2019-05-18T10:11:39.055Z,22.40
2019-05-18T10:12:38.918Z,22.56
2019-05-18T10:13:38.998Z,22.78
2019-05-18T10:14:38.890Z,22.93
2019-05-18T10:15:38.884Z,23.18
2019-05-18T10:16:38.873Z,23.39
2019-05-18T10:17:38.859Z,23.52
2019-05-18T10:18:38.863Z,23.36
2019-05-18T10:19:38.883Z,23.51
2019-05-18T10:20:38.836Z,23.49
2019-05-18T10:21:38.817Z,23.42
2019-05-18T10:22:53.375Z,23.33
2019-05-18T10:23:40.557Z,23.41
2019-05-18T10:24:38.821Z,23.29
2019-05-18T10:25:38.822Z,23.37
2019-05-18T10:26:38.763Z,23.42
2019-05-18T10:27:38.780Z,23.45
2019-05-18T10:28:38.793Z,23.42
2019-05-18T10:29:38.739Z,23.56
2019-05-18T10:30:38.723Z,23.71
2019-05-18T10:31:38.762Z,24.01
2019-05-18T10:32:38.718Z,24.11
2019-05-18T10:33:38.688Z,24.25
2019-05-18T10:34:38.735Z,24.18
2019-05-18T10:35:38.666Z,24.25
2019-05-18T10:36:38.676Z,24.21
2019-05-18T10:37:38.660Z,24.28
2019-05-18T10:38:38.631Z,24.08
2019-05-18T10:39:38.927Z,23.97
2019-05-18T10:40:38.659Z,23.96
2019-05-18T10:41:38.602Z,23.61
2019-05-18T10:42:38.595Z,23.64
2019-05-18T10:43:38.589Z,23.59
2019-05-18T10:44:38.583Z,23.37
2019-05-18T10:45:38.615Z,22.71
2019-05-18T10:46:38.545Z,22.73
2019-05-18T10:47:38.545Z,22.80
2019-05-18T10:48:38.548Z,22.81
2019-05-18T10:49:38.515Z,22.81
2019-05-18T10:50:38.542Z,23.01
2019-05-18T10:51:38.554Z,23.14
2019-05-18T10:52:38.515Z,23.25
2019-05-18T10:53:38.474Z,23.33
2019-05-18T10:54:38.513Z,23.15
2019-05-18T10:55:38.441Z,22.88
2019-05-18T10:56:38.451Z,22.83
2019-05-18T10:57:38.466Z,22.62
2019-05-18T10:58:38.423Z,22.41
2019-05-18T10:59:38.401Z,22.18
2019-05-18T11:00:38.412Z,22.16
2019-05-18T11:01:38.429Z,22.18
2019-05-18T11:02:38.385Z,22.04
2019-05-18T11:03:38.365Z,22.00
2019-05-18T11:04:38.414Z,22.01
2019-05-18T11:05:38.334Z,22.01
2019-05-18T11:06:38.335Z,22.04
2019-05-18T11:07:38.329Z,22.09
2019-05-18T11:08:38.572Z,22.25
2019-05-18T11:09:38.289Z,22.28
2019-05-18T11:10:38.333Z,22.56
2019-05-18T11:11:38.269Z,22.93
2019-05-18T11:12:38.285Z,22.81
2019-05-18T11:13:38.249Z,22.86
2019-05-18T11:14:38.294Z,22.85
2019-05-18T11:15:38.221Z,22.86
2019-05-18T11:16:38.214Z,22.83
2019-05-18T11:17:38.211Z,22.86
2019-05-18T11:18:38.189Z,22.74
2019-05-18T11:19:38.224Z,22.81
2019-05-18T11:20:38.221Z,22.70
2019-05-18T11:21:38.153Z,22.71
2019-05-18T11:22:38.154Z,22.73
2019-05-18T11:23:44.176Z,22.68
2019-05-18T11:24:39.130Z,22.70
2019-05-18T11:25:38.190Z,22.68
2019-05-18T11:26:38.102Z,22.66
2019-05-18T11:27:38.099Z,22.73
2019-05-18T11:28:38.090Z,22.92
2019-05-18T11:29:38.082Z,22.98
2019-05-18T11:30:38.055Z,22.85
2019-05-18T11:31:38.114Z,22.96
2019-05-18T11:32:38.036Z,23.11
2019-05-18T11:33:38.033Z,23.13
2019-05-18T11:34:38.070Z,23.18
2019-05-18T11:35:38.000Z,23.33
2019-05-18T11:36:38.006Z,23.34
2019-05-18T11:37:38.036Z,23.42
2019-05-18T11:38:38.019Z,23.46
2019-05-18T11:39:37.963Z,23.56
2019-05-18T11:40:37.945Z,23.69
2019-05-18T11:41:37.933Z,23.55
2019-05-18T11:42:37.943Z,23.60
2019-05-18T11:43:37.957Z,23.56
2019-05-18T11:44:37.911Z,23.74
2019-05-18T11:45:37.904Z,23.56
2019-05-18T11:46:37.892Z,23.85
2019-05-18T11:47:37.871Z,23.82
2019-05-18T11:48:37.925Z,23.73
2019-05-18T11:49:37.855Z,23.91
2019-05-18T11:50:37.878Z,24.21
2019-05-18T11:51:37.825Z,24.31
2019-05-18T11:52:37.817Z,24.44
2019-05-18T11:53:37.827Z,24.21
2019-05-18T11:54:37.848Z,23.89
2019-05-18T11:55:37.802Z,23.88
2019-05-18T11:56:37.772Z,23.97
2019-05-18T11:57:37.793Z,23.85
2019-05-18T11:58:37.763Z,23.56
2019-05-18T11:59:37.735Z,23.61
2019-05-18T12:00:37.791Z,23.60
2019-05-18T12:01:37.741Z,23.49
2019-05-18T12:02:37.719Z,23.29
2019-05-18T12:03:37.701Z,23.36
2019-05-18T12:04:37.682Z,23.41
2019-05-18T12:05:37.732Z,23.45
2019-05-18T12:06:37.665Z,23.23
2019-05-18T12:07:37.699Z,23.26
2019-05-18T12:08:37.647Z,23.18
2019-05-18T12:09:37.668Z,23.21
2019-05-18T12:10:37.615Z,23.15
2019-05-18T12:11:37.678Z,23.14
2019-05-18T12:12:37.622Z,23.07
2019-05-18T12:13:37.608Z,22.85
2019-05-18T12:14:37.589Z,22.86
2019-05-18T12:15:37.603Z,22.83
2019-05-18T12:16:37.556Z,22.88
2019-05-18T12:17:37.540Z,22.85
2019-05-18T12:18:37.542Z,22.86
2019-05-18T12:19:37.516Z,22.71
2019-05-18T12:20:37.520Z,22.66
2019-05-18T12:21:37.585Z,22.86
2019-05-18T12:22:37.486Z,22.83
2019-05-18T12:23:37.531Z,22.80
2019-05-18T12:24:37.461Z,22.66
2019-05-18T12:25:37.474Z,22.49
2019-05-18T12:26:37.486Z,22.46
2019-05-18T12:27:37.607Z,22.53
2019-05-18T12:28:37.422Z,22.68
2019-05-18T12:29:37.419Z,22.67
2019-05-18T12:30:37.420Z,22.73
2019-05-18T12:31:37.432Z,22.61
2019-05-18T12:32:37.380Z,22.61
2019-05-18T12:33:37.372Z,22.51
2019-05-18T12:34:37.408Z,22.55
2019-05-18T12:35:37.347Z,22.58
2019-05-18T12:36:37.344Z,22.64
2019-05-18T12:37:37.376Z,22.59
2019-05-18T12:38:37.309Z,22.56
2019-05-18T12:39:37.324Z,22.77
2019-05-18T12:40:37.334Z,23.01
2019-05-18T12:41:37.284Z,23.06
2019-05-18T12:42:37.329Z,23.18
2019-05-18T12:43:37.275Z,23.44
2019-05-18T12:44:37.352Z,23.51
2019-05-18T12:45:37.234Z,23.71
2019-05-18T12:46:37.254Z,24.01
2019-05-18T12:47:37.290Z,24.38
2019-05-18T12:48:37.216Z,24.59
2019-05-18T12:49:37.207Z,24.65
2019-05-18T12:50:37.253Z,24.40
2019-05-18T12:51:37.193Z,24.21
2019-05-18T12:52:37.173Z,24.15